sensor_id;sensor_type;location;lat;lon;timestamp;temperature;humidity
39601;DHT22;25297;44.758;11.310;2024-02-16T00:00:08;9.10;96.80
39601;DHT22;25297;44.758;11.310;2024-02-16T00:02:37;9.10;96.60
39601;DHT22;25297;44.758;11.310;2024-02-16T00:05:03;9.10;96.50
39601;DHT22;25297;44.758;11.310;2024-02-16T00:07:30;9.10;96.50
39601;DHT22;25297;44.758;11.310;2024-02-16T00:09:56;9.00;96.50
39601;DHT22;25297;44.758;11.310;2024-02-16T00:12:21;9.10;96.50
39601;DHT22;25297;44.758;11.310;2024-02-16T00:14:47;9.10;96.40
39601;DHT22;25297;44.758;11.310;2024-02-16T00:17:13;9.10;96.30
39601;DHT22;25297;44.758;11.310;2024-02-16T00:19:39;9.20;96.40
39601;DHT22;25297;44.758;11.310;2024-02-16T00:22:04;9.20;96.40
39601;DHT22;25297;44.758;11.310;2024-02-16T00:24:33;9.20;96.30
39601;DHT22;25297;44.758;11.310;2024-02-16T00:26:59;9.20;96.30
39601;DHT22;25297;44.758;11.310;2024-02-16T00:29:25;9.20;96.60
39601;DHT22;25297;44.758;11.310;2024-02-16T00:31:51;9.20;96.70
39601;DHT22;25297;44.758;11.310;2024-02-16T00:34:17;9.20;96.80
39601;DHT22;25297;44.758;11.310;2024-02-16T00:36:42;9.10;96.80
39601;DHT22;25297;44.758;11.310;2024-02-16T00:39:09;9.10;96.60
39601;DHT22;25297;44.758;11.310;2024-02-16T00:41:35;9.10;96.50
39601;DHT22;25297;44.758;11.310;2024-02-16T00:44:00;9.10;96.50
39601;DHT22;25297;44.758;11.310;2024-02-16T00:46:26;9.20;96.50
39601;DHT22;25297;44.758;11.310;2024-02-16T00:48:52;9.20;96.50
39601;DHT22;25297;44.758;11.310;2024-02-16T00:51:19;9.20;96.40
39601;DHT22;25297;44.758;11.310;2024-02-16T00:53:45;9.30;96.50
39601;DHT22;25297;44.758;11.310;2024-02-16T00:56:10;9.30;96.50
39601;DHT22;25297;44.758;11.310;2024-02-16T00:58:40;9.30;96.20
39601;DHT22;25297;44.758;11.310;2024-02-16T01:01:06;9.30;96.20
39601;DHT22;25297;44.758;11.310;2024-02-16T01:03:36;9.30;96.10
39601;DHT22;25297;44.758;11.310;2024-02-16T01:06:03;9.40;95.80
39601;DHT22;25297;44.758;11.310;2024-02-16T01:08:29;9.40;95.90
39601;DHT22;25297;44.758;11.310;2024-02-16T01:10:55;9.40;95.80
39601;DHT22;25297;44.758;11.310;2024-02-16T01:13:21;9.40;95.70
39601;DHT22;25297;44.758;11.310;2024-02-16T01:15:46;9.50;95.70
39601;DHT22;25297;44.758;11.310;2024-02-16T01:18:12;9.50;95.50
39601;DHT22;25297;44.758;11.310;2024-02-16T01:20:38;9.50;95.30
39601;DHT22;25297;44.758;11.310;2024-02-16T01:23:03;9.50;95.20
39601;DHT22;25297;44.758;11.310;2024-02-16T01:25:30;9.50;94.90
39601;DHT22;25297;44.758;11.310;2024-02-16T01:27:56;9.50;95.10
39601;DHT22;25297;44.758;11.310;2024-02-16T01:30:22;9.50;95.10
39601;DHT22;25297;44.758;11.310;2024-02-16T01:32:47;9.60;95.00
39601;DHT22;25297;44.758;11.310;2024-02-16T01:35:13;9.60;94.70
39601;DHT22;25297;44.758;11.310;2024-02-16T01:37:42;9.60;94.90
39601;DHT22;25297;44.758;11.310;2024-02-16T01:40:09;9.70;94.80
39601;DHT22;25297;44.758;11.310;2024-02-16T01:42:43;9.70;94.80
39601;DHT22;25297;44.758;11.310;2024-02-16T01:45:10;9.70;94.70
39601;DHT22;25297;44.758;11.310;2024-02-16T01:47:37;9.70;94.50
39601;DHT22;25297;44.758;11.310;2024-02-16T01:50:05;9.70;94.50
39601;DHT22;25297;44.758;11.310;2024-02-16T01:52:31;9.70;94.50
39601;DHT22;25297;44.758;11.310;2024-02-16T01:54:59;9.70;94.50
39601;DHT22;25297;44.758;11.310;2024-02-16T01:57:28;9.70;94.40
39601;DHT22;25297;44.758;11.310;2024-02-16T01:59:53;9.70;94.30
39601;DHT22;25297;44.758;11.310;2024-02-16T02:02:19;9.80;94.20
39601;DHT22;25297;44.758;11.310;2024-02-16T02:04:45;9.70;94.10
39601;DHT22;25297;44.758;11.310;2024-02-16T02:07:12;9.70;94.00
39601;DHT22;25297;44.758;11.310;2024-02-16T02:09:38;9.60;94.00
39601;DHT22;25297;44.758;11.310;2024-02-16T02:12:03;9.60;93.90
39601;DHT22;25297;44.758;11.310;2024-02-16T02:14:29;9.60;94.10
39601;DHT22;25297;44.758;11.310;2024-02-16T02:16:55;9.50;94.10
39601;DHT22;25297;44.758;11.310;2024-02-16T02:19:20;9.50;94.00
39601;DHT22;25297;44.758;11.310;2024-02-16T02:21:46;9.50;94.10
39601;DHT22;25297;44.758;11.310;2024-02-16T02:24:12;9.50;94.00
39601;DHT22;25297;44.758;11.310;2024-02-16T02:26:38;9.50;93.80
39601;DHT22;25297;44.758;11.310;2024-02-16T02:29:04;9.50;93.60
39601;DHT22;25297;44.758;11.310;2024-02-16T02:31:30;9.40;93.40
39601;DHT22;25297;44.758;11.310;2024-02-16T02:33:55;9.40;93.40
39601;DHT22;25297;44.758;11.310;2024-02-16T02:36:22;9.40;93.30
39601;DHT22;25297;44.758;11.310;2024-02-16T02:38:48;9.40;93.30
39601;DHT22;25297;44.758;11.310;2024-02-16T02:41:16;9.40;93.10
39601;DHT22;25297;44.758;11.310;2024-02-16T02:43:45;9.30;93.00
39601;DHT22;25297;44.758;11.310;2024-02-16T02:46:18;9.30;92.90
39601;DHT22;25297;44.758;11.310;2024-02-16T02:48:44;9.30;93.20
39601;DHT22;25297;44.758;11.310;2024-02-16T02:51:11;9.30;93.30
39601;DHT22;25297;44.758;11.310;2024-02-16T02:53:37;9.30;93.30
39601;DHT22;25297;44.758;11.310;2024-02-16T02:56:04;9.30;93.20
39601;DHT22;25297;44.758;11.310;2024-02-16T02:58:31;9.30;93.20
39601;DHT22;25297;44.758;11.310;2024-02-16T03:00:57;9.30;93.20
39601;DHT22;25297;44.758;11.310;2024-02-16T03:03:23;9.40;93.20
39601;DHT22;25297;44.758;11.310;2024-02-16T03:05:50;9.30;92.90
39601;DHT22;25297;44.758;11.310;2024-02-16T03:08:16;9.40;93.20
39601;DHT22;25297;44.758;11.310;2024-02-16T03:10:42;9.30;93.20
39601;DHT22;25297;44.758;11.310;2024-02-16T03:13:10;9.40;93.20
39601;DHT22;25297;44.758;11.310;2024-02-16T03:15:38;9.30;93.00
39601;DHT22;25297;44.758;11.310;2024-02-16T03:18:08;9.30;93.30
39601;DHT22;25297;44.758;11.310;2024-02-16T03:20:35;9.30;93.30
39601;DHT22;25297;44.758;11.310;2024-02-16T03:23:02;9.40;93.30
39601;DHT22;25297;44.758;11.310;2024-02-16T03:25:29;9.40;93.20
39601;DHT22;25297;44.758;11.310;2024-02-16T03:27:55;9.40;93.10
39601;DHT22;25297;44.758;11.310;2024-02-16T03:30:22;9.30;92.80
39601;DHT22;25297;44.758;11.310;2024-02-16T03:32:49;9.30;93.00
39601;DHT22;25297;44.758;11.310;2024-02-16T03:35:16;9.30;93.00
39601;DHT22;25297;44.758;11.310;2024-02-16T03:37:42;9.30;93.00
39601;DHT22;25297;44.758;11.310;2024-02-16T03:40:09;9.30;93.10
39601;DHT22;25297;44.758;11.310;2024-02-16T03:42:37;9.30;93.10
39601;DHT22;25297;44.758;11.310;2024-02-16T03:45:04;9.30;93.00
39601;DHT22;25297;44.758;11.310;2024-02-16T03:47:30;9.30;93.00
39601;DHT22;25297;44.758;11.310;2024-02-16T03:49:56;9.30;93.00
39601;DHT22;25297;44.758;11.310;2024-02-16T03:52:22;9.20;93.00
39601;DHT22;25297;44.758;11.310;2024-02-16T03:54:50;9.20;93.10
39601;DHT22;25297;44.758;11.310;2024-02-16T03:57:16;9.20;93.20
39601;DHT22;25297;44.758;11.310;2024-02-16T03:59:46;9.30;93.40
39601;DHT22;25297;44.758;11.310;2024-02-16T04:02:12;9.20;93.40
39601;DHT22;25297;44.758;11.310;2024-02-16T04:04:42;9.20;93.50
39601;DHT22;25297;44.758;11.310;2024-02-16T04:07:08;9.20;93.60
39601;DHT22;25297;44.758;11.310;2024-02-16T04:09:35;9.20;93.50
39601;DHT22;25297;44.758;11.310;2024-02-16T04:12:02;9.20;93.40
39601;DHT22;25297;44.758;11.310;2024-02-16T04:14:30;9.10;93.40
39601;DHT22;25297;44.758;11.310;2024-02-16T04:16:57;9.10;93.30
39601;DHT22;25297;44.758;11.310;2024-02-16T04:19:26;9.20;93.50
39601;DHT22;25297;44.758;11.310;2024-02-16T04:21:53;9.10;93.50
39601;DHT22;25297;44.758;11.310;2024-02-16T04:24:19;9.10;93.60
39601;DHT22;25297;44.758;11.310;2024-02-16T04:26:45;9.10;93.40
39601;DHT22;25297;44.758;11.310;2024-02-16T04:29:11;9.10;93.70
39601;DHT22;25297;44.758;11.310;2024-02-16T04:31:41;9.10;93.70
39601;DHT22;25297;44.758;11.310;2024-02-16T04:34:08;9.10;93.70
39601;DHT22;25297;44.758;11.310;2024-02-16T04:36:35;9.10;93.70
39601;DHT22;25297;44.758;11.310;2024-02-16T04:39:01;9.10;93.70
39601;DHT22;25297;44.758;11.310;2024-02-16T04:41:27;9.10;93.60
39601;DHT22;25297;44.758;11.310;2024-02-16T04:43:53;9.10;93.70
39601;DHT22;25297;44.758;11.310;2024-02-16T04:46:19;9.10;93.70
39601;DHT22;25297;44.758;11.310;2024-02-16T04:48:46;9.10;93.70
39601;DHT22;25297;44.758;11.310;2024-02-16T04:51:12;9.10;93.70
39601;DHT22;25297;44.758;11.310;2024-02-16T04:53:37;9.10;93.80
39601;DHT22;25297;44.758;11.310;2024-02-16T04:56:04;9.10;93.80
39601;DHT22;25297;44.758;11.310;2024-02-16T04:58:31;9.00;93.80
39601;DHT22;25297;44.758;11.310;2024-02-16T05:00:57;9.00;93.90
39601;DHT22;25297;44.758;11.310;2024-02-16T05:03:24;9.00;94.00
39601;DHT22;25297;44.758;11.310;2024-02-16T05:05:51;9.10;94.20
39601;DHT22;25297;44.758;11.310;2024-02-16T05:08:22;9.10;94.20
39601;DHT22;25297;44.758;11.310;2024-02-16T05:10:48;9.10;94.20
39601;DHT22;25297;44.758;11.310;2024-02-16T05:13:15;9.10;94.10
39601;DHT22;25297;44.758;11.310;2024-02-16T05:15:41;9.10;94.20
39601;DHT22;25297;44.758;11.310;2024-02-16T05:18:07;9.20;94.20
39601;DHT22;25297;44.758;11.310;2024-02-16T05:20:33;9.20;94.10
39601;DHT22;25297;44.758;11.310;2024-02-16T05:23:00;9.20;94.00
39601;DHT22;25297;44.758;11.310;2024-02-16T05:25:26;9.20;93.80
39601;DHT22;25297;44.758;11.310;2024-02-16T05:27:53;9.20;93.90
39601;DHT22;25297;44.758;11.310;2024-02-16T05:30:20;9.20;93.90
39601;DHT22;25297;44.758;11.310;2024-02-16T05:32:46;9.10;93.90
39601;DHT22;25297;44.758;11.310;2024-02-16T05:35:14;9.20;93.80
39601;DHT22;25297;44.758;11.310;2024-02-16T05:37:44;9.20;94.10
39601;DHT22;25297;44.758;11.310;2024-02-16T05:40:11;9.20;94.00
39601;DHT22;25297;44.758;11.310;2024-02-16T05:42:55;9.20;94.00
39601;DHT22;25297;44.758;11.310;2024-02-16T05:45:25;9.20;94.20
39601;DHT22;25297;44.758;11.310;2024-02-16T05:47:55;9.20;94.30
39601;DHT22;25297;44.758;11.310;2024-02-16T05:50:21;9.20;94.30
39601;DHT22;25297;44.758;11.310;2024-02-16T05:52:48;9.30;94.30
39601;DHT22;25297;44.758;11.310;2024-02-16T05:55:15;9.30;94.20
39601;DHT22;25297;44.758;11.310;2024-02-16T05:57:44;9.30;94.40
39601;DHT22;25297;44.758;11.310;2024-02-16T06:00:10;9.40;94.50
39601;DHT22;25297;44.758;11.310;2024-02-16T06:02:39;9.40;94.40
39601;DHT22;25297;44.758;11.310;2024-02-16T06:05:05;9.40;94.40
39601;DHT22;25297;44.758;11.310;2024-02-16T06:07:31;9.40;94.40
39601;DHT22;25297;44.758;11.310;2024-02-16T06:09:57;9.40;94.40
39601;DHT22;25297;44.758;11.310;2024-02-16T06:12:24;9.40;94.30
39601;DHT22;25297;44.758;11.310;2024-02-16T06:14:50;9.30;94.30
39601;DHT22;25297;44.758;11.310;2024-02-16T06:17:16;9.40;94.40
39601;DHT22;25297;44.758;11.310;2024-02-16T06:19:42;9.30;94.30
39601;DHT22;25297;44.758;11.310;2024-02-16T06:22:09;9.30;94.20
39601;DHT22;25297;44.758;11.310;2024-02-16T06:24:35;9.30;94.40
39601;DHT22;25297;44.758;11.310;2024-02-16T06:27:02;9.30;94.50
39601;DHT22;25297;44.758;11.310;2024-02-16T06:29:29;9.30;94.70
39601;DHT22;25297;44.758;11.310;2024-02-16T06:31:56;9.30;94.70
39601;DHT22;25297;44.758;11.310;2024-02-16T06:34:22;9.30;94.80
39601;DHT22;25297;44.758;11.310;2024-02-16T06:36:48;9.30;94.90
39601;DHT22;25297;44.758;11.310;2024-02-16T06:39:16;9.40;94.90
39601;DHT22;25297;44.758;11.310;2024-02-16T06:41:46;9.40;95.00
39601;DHT22;25297;44.758;11.310;2024-02-16T06:44:13;9.40;95.10
39601;DHT22;25297;44.758;11.310;2024-02-16T06:46:40;9.40;95.10
39601;DHT22;25297;44.758;11.310;2024-02-16T06:49:06;9.50;95.40
39601;DHT22;25297;44.758;11.310;2024-02-16T06:51:32;9.50;95.60
39601;DHT22;25297;44.758;11.310;2024-02-16T06:53:59;9.60;95.80
39601;DHT22;25297;44.758;11.310;2024-02-16T06:56:25;9.60;96.00
39601;DHT22;25297;44.758;11.310;2024-02-16T06:58:50;9.60;96.20
39601;DHT22;25297;44.758;11.310;2024-02-16T07:01:16;9.60;96.90
39601;DHT22;25297;44.758;11.310;2024-02-16T07:03:44;9.70;97.70
39601;DHT22;25297;44.758;11.310;2024-02-16T07:06:10;9.60;98.50
39601;DHT22;25297;44.758;11.310;2024-02-16T07:08:43;9.60;98.90
39601;DHT22;25297;44.758;11.310;2024-02-16T07:11:10;9.50;99.60
39601;DHT22;25297;44.758;11.310;2024-02-16T07:13:39;9.50;99.90
39601;DHT22;25297;44.758;11.310;2024-02-16T07:16:06;9.50;99.90
39601;DHT22;25297;44.758;11.310;2024-02-16T07:18:34;9.40;99.90
39601;DHT22;25297;44.758;11.310;2024-02-16T07:21:00;9.40;99.90
39601;DHT22;25297;44.758;11.310;2024-02-16T07:23:26;9.30;99.90
39601;DHT22;25297;44.758;11.310;2024-02-16T07:25:52;9.30;99.90
39601;DHT22;25297;44.758;11.310;2024-02-16T07:28:22;9.30;99.90
39601;DHT22;25297;44.758;11.310;2024-02-16T07:30:47;9.20;99.90
39601;DHT22;25297;44.758;11.310;2024-02-16T07:33:13;9.20;99.90
39601;DHT22;25297;44.758;11.310;2024-02-16T07:35:39;9.20;99.90
39601;DHT22;25297;44.758;11.310;2024-02-16T07:38:05;9.20;99.90
39601;DHT22;25297;44.758;11.310;2024-02-16T07:40:31;9.20;99.90
39601;DHT22;25297;44.758;11.310;2024-02-16T07:42:57;9.20;99.90
39601;DHT22;25297;44.758;11.310;2024-02-16T07:45:23;9.20;99.90
39601;DHT22;25297;44.758;11.310;2024-02-16T07:47:48;9.20;99.90
39601;DHT22;25297;44.758;11.310;2024-02-16T07:50:19;9.20;99.90
39601;DHT22;25297;44.758;11.310;2024-02-16T07:52:45;9.20;99.90
39601;DHT22;25297;44.758;11.310;2024-02-16T07:55:11;9.10;99.90
39601;DHT22;25297;44.758;11.310;2024-02-16T07:57:36;9.10;99.90
39601;DHT22;25297;44.758;11.310;2024-02-16T08:00:04;9.10;99.90
39601;DHT22;25297;44.758;11.310;2024-02-16T08:02:29;9.10;99.90
39601;DHT22;25297;44.758;11.310;2024-02-16T08:04:55;9.10;99.90
39601;DHT22;25297;44.758;11.310;2024-02-16T08:07:21;9.20;99.90
39601;DHT22;25297;44.758;11.310;2024-02-16T08:09:47;9.20;99.90
39601;DHT22;25297;44.758;11.310;2024-02-16T08:12:13;9.30;99.90
39601;DHT22;25297;44.758;11.310;2024-02-16T08:14:39;9.30;99.90
39601;DHT22;25297;44.758;11.310;2024-02-16T08:17:06;9.30;99.90
39601;DHT22;25297;44.758;11.310;2024-02-16T08:19:33;9.40;99.90
39601;DHT22;25297;44.758;11.310;2024-02-16T08:22:07;9.40;99.90
39601;DHT22;25297;44.758;11.310;2024-02-16T08:24:36;9.40;99.90
39601;DHT22;25297;44.758;11.310;2024-02-16T08:27:03;9.40;99.90
39601;DHT22;25297;44.758;11.310;2024-02-16T08:29:30;9.40;99.90
39601;DHT22;25297;44.758;11.310;2024-02-16T08:31:56;9.40;99.90
39601;DHT22;25297;44.758;11.310;2024-02-16T08:34:21;9.40;99.90
39601;DHT22;25297;44.758;11.310;2024-02-16T08:36:50;9.40;99.90
39601;DHT22;25297;44.758;11.310;2024-02-16T08:39:16;9.50;99.90
39601;DHT22;25297;44.758;11.310;2024-02-16T08:41:43;9.50;99.90
39601;DHT22;25297;44.758;11.310;2024-02-16T08:44:14;9.60;99.90
39601;DHT22;25297;44.758;11.310;2024-02-16T08:46:40;9.60;99.90
39601;DHT22;25297;44.758;11.310;2024-02-16T08:49:06;9.70;99.90
39601;DHT22;25297;44.758;11.310;2024-02-16T08:51:32;9.80;99.90
39601;DHT22;25297;44.758;11.310;2024-02-16T08:53:59;9.80;99.90
39601;DHT22;25297;44.758;11.310;2024-02-16T08:56:25;9.80;99.90
39601;DHT22;25297;44.758;11.310;2024-02-16T08:58:50;9.90;99.90
39601;DHT22;25297;44.758;11.310;2024-02-16T09:01:16;9.90;99.90
39601;DHT22;25297;44.758;11.310;2024-02-16T09:03:42;10.00;99.90
39601;DHT22;25297;44.758;11.310;2024-02-16T09:06:08;10.10;99.90
39601;DHT22;25297;44.758;11.310;2024-02-16T09:08:34;10.10;99.90
39601;DHT22;25297;44.758;11.310;2024-02-16T09:11:03;10.20;99.90
39601;DHT22;25297;44.758;11.310;2024-02-16T09:13:33;10.20;99.90
39601;DHT22;25297;44.758;11.310;2024-02-16T09:15:59;10.20;99.90
39601;DHT22;25297;44.758;11.310;2024-02-16T09:18:25;10.30;99.90
39601;DHT22;25297;44.758;11.310;2024-02-16T09:20:51;10.30;99.90
39601;DHT22;25297;44.758;11.310;2024-02-16T09:23:17;10.30;99.90
39601;DHT22;25297;44.758;11.310;2024-02-16T09:25:42;10.40;99.90
39601;DHT22;25297;44.758;11.310;2024-02-16T09:28:09;10.50;99.90
39601;DHT22;25297;44.758;11.310;2024-02-16T09:30:37;10.50;99.90
39601;DHT22;25297;44.758;11.310;2024-02-16T09:33:03;10.60;99.90
39601;DHT22;25297;44.758;11.310;2024-02-16T09:35:28;10.60;99.90
39601;DHT22;25297;44.758;11.310;2024-02-16T09:37:54;10.70;99.90
39601;DHT22;25297;44.758;11.310;2024-02-16T09:40:19;10.70;99.90
39601;DHT22;25297;44.758;11.310;2024-02-16T09:42:48;10.70;99.90
39601;DHT22;25297;44.758;11.310;2024-02-16T09:45:17;10.80;99.90
39601;DHT22;25297;44.758;11.310;2024-02-16T09:47:44;10.90;99.90
39601;DHT22;25297;44.758;11.310;2024-02-16T09:50:12;11.00;99.90
39601;DHT22;25297;44.758;11.310;2024-02-16T09:52:38;11.10;99.90
39601;DHT22;25297;44.758;11.310;2024-02-16T09:55:07;11.20;99.90
39601;DHT22;25297;44.758;11.310;2024-02-16T09:57:35;11.20;99.90
39601;DHT22;25297;44.758;11.310;2024-02-16T10:00:02;11.30;99.90
39601;DHT22;25297;44.758;11.310;2024-02-16T10:02:42;11.40;99.90
39601;DHT22;25297;44.758;11.310;2024-02-16T10:05:15;11.40;99.90
39601;DHT22;25297;44.758;11.310;2024-02-16T10:07:41;11.50;99.90
39601;DHT22;25297;44.758;11.310;2024-02-16T10:10:26;11.50;99.90
39601;DHT22;25297;44.758;11.310;2024-02-16T10:13:08;11.60;99.90
39601;DHT22;25297;44.758;11.310;2024-02-16T10:15:34;11.70;99.90
39601;DHT22;25297;44.758;11.310;2024-02-16T10:18:00;11.70;99.90
39601;DHT22;25297;44.758;11.310;2024-02-16T10:20:26;11.70;99.90
39601;DHT22;25297;44.758;11.310;2024-02-16T10:25:29;11.80;99.90
39601;DHT22;25297;44.758;11.310;2024-02-16T10:27:57;11.80;99.90
39601;DHT22;25297;44.758;11.310;2024-02-16T10:30:26;11.90;99.90
39601;DHT22;25297;44.758;11.310;2024-02-16T10:32:54;11.90;99.90
39601;DHT22;25297;44.758;11.310;2024-02-16T10:35:21;12.00;99.90
39601;DHT22;25297;44.758;11.310;2024-02-16T10:37:49;12.10;99.90
39601;DHT22;25297;44.758;11.310;2024-02-16T10:40:16;12.20;99.90
39601;DHT22;25297;44.758;11.310;2024-02-16T10:42:45;12.20;99.90
39601;DHT22;25297;44.758;11.310;2024-02-16T10:45:12;12.30;99.90
39601;DHT22;25297;44.758;11.310;2024-02-16T10:47:41;12.40;99.90
39601;DHT22;25297;44.758;11.310;2024-02-16T10:50:07;12.40;99.90
39601;DHT22;25297;44.758;11.310;2024-02-16T10:52:35;12.50;99.90
39601;DHT22;25297;44.758;11.310;2024-02-16T10:55:04;12.50;99.90
39601;DHT22;25297;44.758;11.310;2024-02-16T10:57:30;12.60;99.90
39601;DHT22;25297;44.758;11.310;2024-02-16T10:59:57;12.60;99.90
39601;DHT22;25297;44.758;11.310;2024-02-16T11:02:24;12.70;99.90
39601;DHT22;25297;44.758;11.310;2024-02-16T11:04:52;12.70;99.90
39601;DHT22;25297;44.758;11.310;2024-02-16T11:07:19;12.80;99.90
39601;DHT22;25297;44.758;11.310;2024-02-16T11:09:46;12.80;99.90
39601;DHT22;25297;44.758;11.310;2024-02-16T11:12:13;12.90;99.90
39601;DHT22;25297;44.758;11.310;2024-02-16T11:17:13;13.00;99.90
39601;DHT22;25297;44.758;11.310;2024-02-16T11:19:46;13.00;99.90
39601;DHT22;25297;44.758;11.310;2024-02-16T11:22:16;13.20;99.90
39601;DHT22;25297;44.758;11.310;2024-02-16T11:24:47;13.20;99.90
39601;DHT22;25297;44.758;11.310;2024-02-16T11:27:13;13.30;99.90
39601;DHT22;25297;44.758;11.310;2024-02-16T11:29:47;13.30;99.90
39601;DHT22;25297;44.758;11.310;2024-02-16T11:32:13;13.40;99.90
39601;DHT22;25297;44.758;11.310;2024-02-16T11:34:38;13.50;99.90
39601;DHT22;25297;44.758;11.310;2024-02-16T11:37:04;13.50;99.90
39601;DHT22;25297;44.758;11.310;2024-02-16T11:39:31;13.60;99.90
39601;DHT22;25297;44.758;11.310;2024-02-16T11:42:07;13.70;99.90
39601;DHT22;25297;44.758;11.310;2024-02-16T11:44:36;13.80;99.90
39601;DHT22;25297;44.758;11.310;2024-02-16T11:47:06;13.80;99.90
39601;DHT22;25297;44.758;11.310;2024-02-16T11:49:34;13.90;99.90
39601;DHT22;25297;44.758;11.310;2024-02-16T11:52:00;14.00;99.90
39601;DHT22;25297;44.758;11.310;2024-02-16T11:54:26;14.10;99.90
39601;DHT22;25297;44.758;11.310;2024-02-16T11:56:52;14.10;99.90
39601;DHT22;25297;44.758;11.310;2024-02-16T11:59:19;14.20;99.90
39601;DHT22;25297;44.758;11.310;2024-02-16T12:01:52;14.30;99.90
39601;DHT22;25297;44.758;11.310;2024-02-16T12:06:46;14.50;99.90
39601;DHT22;25297;44.758;11.310;2024-02-16T12:09:15;14.60;99.90
39601;DHT22;25297;44.758;11.310;2024-02-16T12:11:42;14.70;99.90
39601;DHT22;25297;44.758;11.310;2024-02-16T12:14:07;14.80;99.90
39601;DHT22;25297;44.758;11.310;2024-02-16T12:16:33;14.90;99.90
39601;DHT22;25297;44.758;11.310;2024-02-16T12:19:04;15.00;99.90
39601;DHT22;25297;44.758;11.310;2024-02-16T12:21:30;15.10;99.90
39601;DHT22;25297;44.758;11.310;2024-02-16T12:23:56;15.20;99.90
39601;DHT22;25297;44.758;11.310;2024-02-16T12:26:21;15.30;99.80
39601;DHT22;25297;44.758;11.310;2024-02-16T12:28:48;15.40;99.70
39601;DHT22;25297;44.758;11.310;2024-02-16T12:31:20;15.60;99.50
39601;DHT22;25297;44.758;11.310;2024-02-16T12:33:46;15.70;98.60
39601;DHT22;25297;44.758;11.310;2024-02-16T12:36:12;15.90;97.90
39601;DHT22;25297;44.758;11.310;2024-02-16T12:38:38;16.20;97.70
39601;DHT22;25297;44.758;11.310;2024-02-16T12:41:04;16.90;98.20
39601;DHT22;25297;44.758;11.310;2024-02-16T12:43:29;17.80;97.90
39601;DHT22;25297;44.758;11.310;2024-02-16T12:45:55;18.60;96.20
39601;DHT22;25297;44.758;11.310;2024-02-16T12:48:21;19.30;94.60
39601;DHT22;25297;44.758;11.310;2024-02-16T12:50:47;20.00;92.30
39601;DHT22;25297;44.758;11.310;2024-02-16T12:53:14;20.40;90.90
39601;DHT22;25297;44.758;11.310;2024-02-16T12:55:40;21.30;88.50
39601;DHT22;25297;44.758;11.310;2024-02-16T12:58:06;21.50;88.10
39601;DHT22;25297;44.758;11.310;2024-02-16T13:00:32;22.10;86.40
39601;DHT22;25297;44.758;11.310;2024-02-16T13:02:57;22.80;83.30
39601;DHT22;25297;44.758;11.310;2024-02-16T13:05:23;23.40;80.00
39601;DHT22;25297;44.758;11.310;2024-02-16T13:07:48;23.90;78.40
39601;DHT22;25297;44.758;11.310;2024-02-16T13:10:15;24.40;76.10
39601;DHT22;25297;44.758;11.310;2024-02-16T13:12:40;25.00;75.40
39601;DHT22;25297;44.758;11.310;2024-02-16T13:15:08;25.50;73.00
39601;DHT22;25297;44.758;11.310;2024-02-16T13:17:34;26.00;70.60
39601;DHT22;25297;44.758;11.310;2024-02-16T13:20:00;26.30;67.90
39601;DHT22;25297;44.758;11.310;2024-02-16T13:22:41;26.50;68.00
39601;DHT22;25297;44.758;11.310;2024-02-16T13:25:08;26.40;65.80
39601;DHT22;25297;44.758;11.310;2024-02-16T13:27:34;26.30;64.80
39601;DHT22;25297;44.758;11.310;2024-02-16T13:30:00;26.20;64.50
39601;DHT22;25297;44.758;11.310;2024-02-16T13:32:26;26.10;64.60
39601;DHT22;25297;44.758;11.310;2024-02-16T13:34:52;25.90;64.70
39601;DHT22;25297;44.758;11.310;2024-02-16T13:37:17;25.70;64.40
39601;DHT22;25297;44.758;11.310;2024-02-16T13:39:43;25.70;64.10
39601;DHT22;25297;44.758;11.310;2024-02-16T13:42:10;25.60;63.50
39601;DHT22;25297;44.758;11.310;2024-02-16T13:44:36;25.50;63.00
39601;DHT22;25297;44.758;11.310;2024-02-16T13:47:02;25.40;62.10
39601;DHT22;25297;44.758;11.310;2024-02-16T13:49:28;25.50;62.60
39601;DHT22;25297;44.758;11.310;2024-02-16T13:51:53;25.50;62.10
39601;DHT22;25297;44.758;11.310;2024-02-16T13:54:26;25.30;62.10
39601;DHT22;25297;44.758;11.310;2024-02-16T13:56:52;25.10;61.50
39601;DHT22;25297;44.758;11.310;2024-02-16T13:59:18;24.70;60.90
39601;DHT22;25297;44.758;11.310;2024-02-16T14:01:44;24.30;61.10
39601;DHT22;25297;44.758;11.310;2024-02-16T14:04:10;23.80;62.60
39601;DHT22;25297;44.758;11.310;2024-02-16T14:06:36;23.40;62.80
39601;DHT22;25297;44.758;11.310;2024-02-16T14:09:02;23.20;64.20
39601;DHT22;25297;44.758;11.310;2024-02-16T14:11:35;22.90;64.70
39601;DHT22;25297;44.758;11.310;2024-02-16T14:14:01;22.50;65.80
39601;DHT22;25297;44.758;11.310;2024-02-16T14:16:27;22.20;65.80
39601;DHT22;25297;44.758;11.310;2024-02-16T14:18:52;21.90;66.20
39601;DHT22;25297;44.758;11.310;2024-02-16T14:21:18;21.70;66.20
39601;DHT22;25297;44.758;11.310;2024-02-16T14:23:43;21.60;66.60
39601;DHT22;25297;44.758;11.310;2024-02-16T14:26:09;21.40;66.30
39601;DHT22;25297;44.758;11.310;2024-02-16T14:28:35;21.20;66.50
39601;DHT22;25297;44.758;11.310;2024-02-16T14:31:01;21.00;66.80
39601;DHT22;25297;44.758;11.310;2024-02-16T14:33:28;21.00;67.90
39601;DHT22;25297;44.758;11.310;2024-02-16T14:35:53;20.80;67.30
39601;DHT22;25297;44.758;11.310;2024-02-16T14:38:19;20.80;68.20
39601;DHT22;25297;44.758;11.310;2024-02-16T14:40:45;20.60;68.40
39601;DHT22;25297;44.758;11.310;2024-02-16T14:43:10;20.50;68.90
39601;DHT22;25297;44.758;11.310;2024-02-16T14:45:36;20.30;67.90
39601;DHT22;25297;44.758;11.310;2024-02-16T14:48:04;20.20;68.40
39601;DHT22;25297;44.758;11.310;2024-02-16T14:50:30;20.30;68.60
39601;DHT22;25297;44.758;11.310;2024-02-16T14:52:56;20.40;69.10
39601;DHT22;25297;44.758;11.310;2024-02-16T14:55:22;20.40;69.00
39601;DHT22;25297;44.758;11.310;2024-02-16T14:57:47;20.30;68.50
39601;DHT22;25297;44.758;11.310;2024-02-16T15:00:14;20.20;69.20
39601;DHT22;25297;44.758;11.310;2024-02-16T15:02:40;20.10;70.20
39601;DHT22;25297;44.758;11.310;2024-02-16T15:05:08;20.00;70.10
39601;DHT22;25297;44.758;11.310;2024-02-16T15:07:34;19.80;70.90
39601;DHT22;25297;44.758;11.310;2024-02-16T15:10:01;19.70;71.40
39601;DHT22;25297;44.758;11.310;2024-02-16T15:12:26;19.70;71.60
39601;DHT22;25297;44.758;11.310;2024-02-16T15:14:52;19.50;71.70
39601;DHT22;25297;44.758;11.310;2024-02-16T15:17:18;19.40;72.00
39601;DHT22;25297;44.758;11.310;2024-02-16T15:19:45;19.30;72.70
39601;DHT22;25297;44.758;11.310;2024-02-16T15:22:10;19.20;72.80
39601;DHT22;25297;44.758;11.310;2024-02-16T15:24:36;19.10;72.50
39601;DHT22;25297;44.758;11.310;2024-02-16T15:27:02;19.10;72.40
39601;DHT22;25297;44.758;11.310;2024-02-16T15:29:29;19.20;73.30